Time;durP1;ratioP1;P1;durP2;ratioP2;P2;SDS_P1;SDS_P2;PMS_P1;PMS_P2;Temp;Humidity;BMP_temperature;BMP_pressure;BME280_temperature;BME280_humidity;BME280_pressure;Samples;Min_cycle;Max_cycle;Signal;HPM_P1;HPM_P2
2021/04/14 00:00:34;;;;;;;12.50;7.75;;;9.50;46.40;;;;;;5045065;28;20040;-61
2021/04/14 00:03:03;;;;;;;13.32;7.90;;;9.50;46.50;;;;;;5040642;28;20516;-61
2021/04/14 00:05:35;;;;;;;13.48;7.65;;;9.40;46.30;;;;;;5043162;28;20044;-62
2021/04/14 00:08:02;;;;;;;12.27;7.20;;;9.40;46.50;;;;;;5035796;28;20443;-61
2021/04/14 00:10:31;;;;;;;12.02;7.63;;;9.40;46.50;;;;;;5047606;28;20033;-61
2021/04/14 00:12:57;;;;;;;13.80;7.95;;;9.50;46.40;;;;;;5047349;28;20032;-61
2021/04/14 00:15:29;;;;;;;12.75;7.90;;;9.50;46.60;;;;;;5046948;28;20425;-62
2021/04/14 00:17:55;;;;;;;13.82;7.88;;;9.50;46.60;;;;;;5047293;28;20028;-62
2021/04/14 00:20:21;;;;;;;12.40;7.95;;;9.40;46.60;;;;;;5047342;28;20025;-62
2021/04/14 00:22:46;;;;;;;12.23;7.93;;;9.40;46.60;;;;;;5047198;28;20051;-62
2021/04/14 00:25:16;;;;;;;12.30;7.78;;;9.30;46.80;;;;;;5047260;28;20033;-62
2021/04/14 00:27:42;;;;;;;12.95;7.65;;;9.30;46.80;;;;;;5035530;28;20022;-62
2021/04/14 00:30:09;;;;;;;14.20;8.32;;;9.30;47.10;;;;;;5033789;28;20338;-62
2021/04/14 00:32:35;;;;;;;13.50;8.60;;;9.30;47.10;;;;;;5034016;28;20025;-63
2021/04/14 00:35:01;;;;;;;12.68;8.38;;;9.30;47.10;;;;;;5029603;28;20026;-62
2021/04/14 00:37:27;;;;;;;14.13;8.55;;;9.20;47.30;;;;;;5026335;28;20030;-62
2021/04/14 00:39:52;;;;;;;14.52;8.90;;;9.20;47.60;;;;;;5033912;28;20022;-61
2021/04/14 00:42:18;;;;;;;14.10;9.02;;;9.10;47.80;;;;;;5033232;28;20037;-61
2021/04/14 00:44:44;;;;;;;15.02;8.90;;;9.10;47.80;;;;;;5033704;28;20040;-61
2021/04/14 00:47:09;;;;;;;13.88;8.65;;;9.10;47.90;;;;;;5033466;28;20032;-61
2021/04/14 00:49:35;;;;;;;12.48;8.05;;;9.10;47.90;;;;;;5033845;28;20112;-61
2021/04/14 00:52:01;;;;;;;14.25;8.90;;;9.10;47.90;;;;;;5033582;28;20033;-61
2021/04/14 00:54:27;;;;;;;12.40;8.50;;;9.00;48.10;;;;;;5033407;28;20490;-61
2021/04/14 00:56:52;;;;;;;15.38;9.40;;;9.00;48.10;;;;;;5032974;28;20492;-61
2021/04/14 00:59:18;;;;;;;13.77;9.10;;;9.00;48.20;;;;;;5033264;28;20022;-61
2021/04/14 01:01:43;;;;;;;17.70;9.50;;;8.90;48.40;;;;;;5032316;28;20083;-61
2021/04/14 01:04:09;;;;;;;12.70;8.23;;;8.90;48.40;;;;;;5032958;28;20084;-61
2021/04/14 01:06:35;;;;;;;12.73;8.48;;;8.90;48.50;;;;;;5033249;28;20087;-61
2021/04/14 01:09:01;;;;;;;13.60;8.82;;;8.90;48.40;;;;;;5033321;28;20030;-61
2021/04/14 01:11:30;;;;;;;13.25;8.68;;;8.90;48.60;;;;;;5031760;28;20029;-61
2021/04/14 01:13:56;;;;;;;13.45;8.52;;;8.80;48.50;;;;;;5029332;28;20029;-61
2021/04/14 01:16:22;;;;;;;13.75;8.60;;;8.80;48.70;;;;;;5028713;28;20044;-62
2021/04/14 01:18:48;;;;;;;14.85;9.07;;;8.80;48.70;;;;;;5033124;28;20044;-61
2021/04/14 01:21:22;;;;;;;13.45;8.88;;;8.80;48.90;;;;;;5032447;28;20021;-61
2021/04/14 01:23:49;;;;;;;13.98;8.73;;;8.80;48.90;;;;;;5032985;28;20099;-62
2021/04/14 01:26:15;;;;;;;13.77;8.35;;;8.70;48.90;;;;;;5032289;28;20420;-62
2021/04/14 01:28:44;;;;;;;16.60;9.10;;;8.70;49.30;;;;;;5032786;28;20025;-61
2021/04/14 01:31:13;;;;;;;14.23;8.75;;;8.60;49.40;;;;;;5032664;28;20029;-62
2021/04/14 01:33:39;;;;;;;13.48;8.13;;;8.60;49.40;;;;;;5032932;28;20487;-61
2021/04/14 01:36:07;;;;;;;13.93;8.35;;;8.60;49.70;;;;;;5025087;28;20112;-62
2021/04/14 01:38:33;;;;;;;13.63;8.07;;;8.50;49.80;;;;;;5030217;28;20029;-62
2021/04/14 01:41:02;;;;;;;13.20;8.35;;;8.50;49.50;;;;;;5032336;28;20025;-61
2021/04/14 01:43:29;;;;;;;13.50;7.95;;;8.60;49.70;;;;;;5032488;28;20405;-61
2021/04/14 01:45:55;;;;;;;14.27;8.00;;;8.50;49.60;;;;;;5030770;28;20486;-62
2021/04/14 01:48:21;;;;;;;15.38;7.65;;;8.50;49.80;;;;;;5032416;28;20105;-61
2021/04/14 01:50:47;;;;;;;14.25;8.48;;;8.50;49.80;;;;;;5032385;28;20183;-61
2021/04/14 01:53:17;;;;;;;13.07;7.90;;;8.50;49.90;;;;;;5031827;28;20025;-61
2021/04/14 01:55:43;;;;;;;13.48;7.97;;;8.50;49.80;;;;;;5032179;28;20040;-61
2021/04/14 01:58:11;;;;;;;13.15;7.90;;;8.50;49.70;;;;;;5032090;28;20060;-61
2021/04/14 02:00:44;;;;;;;15.30;8.30;;;8.40;49.90;;;;;;5032254;28;20425;-61
2021/04/14 02:03:12;;;;;;;12.77;7.72;;;8.40;50.10;;;;;;5032259;28;20084;-61
2021/04/14 02:05:37;;;;;;;14.10;8.43;;;8.40;50.00;;;;;;5032308;28;20030;-61
2021/04/14 02:08:04;;;;;;;15.27;8.43;;;8.40;50.10;;;;;;5031799;28;20036;-61
2021/04/14 02:10:31;;;;;;;14.60;8.15;;;8.30;50.30;;;;;;5031832;28;20030;-61
2021/04/14 02:13:00;;;;;;;15.70;7.88;;;8.30;50.30;;;;;;5032278;28;20381;-61
2021/04/14 02:15:29;;;;;;;13.45;7.78;;;8.30;50.20;;;;;;5031489;28;20509;-61
2021/04/14 02:17:55;;;;;;;13.00;7.50;;;8.30;50.10;;;;;;5031914;28;20116;-61
2021/04/14 02:20:22;;;;;;;12.82;7.68;;;8.30;50.20;;;;;;5031755;28;20031;-61
2021/04/14 02:22:48;;;;;;;13.85;7.60;;;8.30;50.20;;;;;;5031640;28;20079;-61
2021/04/14 02:25:15;;;;;;;15.82;7.75;;;8.20;50.20;;;;;;5031166;28;20026;-61
2021/04/14 02:27:41;;;;;;;14.15;7.88;;;8.20;50.30;;;;;;5031846;28;20381;-61
2021/04/14 02:30:28;;;;;;;15.95;7.78;;;8.20;50.50;;;;;;5031807;28;20037;-63
2021/04/14 02:32:55;;;;;;;13.05;8.02;;;8.20;50.50;;;;;;5031833;28;20028;-62
2021/04/14 02:35:23;;;;;;;14.43;7.93;;;8.20;50.50;;;;;;5026549;28;20116;-61
2021/04/14 02:37:48;;;;;;;13.27;7.57;;;8.20;50.50;;;;;;5031586;28;20026;-62
2021/04/14 02:40:15;;;;;;;13.63;7.32;;;8.20;50.60;;;;;;5031539;28;20026;-61
2021/04/14 02:42:41;;;;;;;13.60;7.93;;;8.10;50.50;;;;;;5031310;28;20029;-61
2021/04/14 02:45:09;;;;;;;14.07;7.70;;;8.10;50.80;;;;;;5031667;28;20034;-61
2021/04/14 02:47:35;;;;;;;12.75;7.57;;;8.00;50.70;;;;;;5030763;28;20401;-61
2021/04/14 02:50:00;;;;;;;14.65;7.57;;;8.00;50.60;;;;;;5031130;28;20025;-61
2021/04/14 02:52:26;;;;;;;14.10;7.80;;;8.00;50.60;;;;;;5030813;28;20388;-61
2021/04/14 02:54:52;;;;;;;12.38;7.10;;;8.00;50.80;;;;;;5031476;28;20030;-61
2021/04/14 02:57:17;;;;;;;12.40;7.82;;;8.00;50.90;;;;;;5026759;28;20422;-61
2021/04/14 02:59:43;;;;;;;16.95;8.15;;;8.00;50.90;;;;;;5031119;28;20375;-61
2021/04/14 03:02:09;;;;;;;14.73;7.53;;;7.90;50.70;;;;;;5031387;28;20116;-61
2021/04/14 03:04:36;;;;;;;14.65;7.90;;;7.90;50.80;;;;;;5030576;28;20427;-61
2021/04/14 03:07:03;;;;;;;15.35;7.82;;;7.90;50.90;;;;;;5031286;28;20056;-61
2021/04/14 03:09:29;;;;;;;14.57;8.25;;;7.90;50.80;;;;;;5030681;28;20061;-61
2021/04/14 03:11:54;;;;;;;12.65;7.57;;;7.90;50.80;;;;;;5031140;28;20061;-61
2021/04/14 03:14:20;;;;;;;13.38;7.80;;;7.90;50.70;;;;;;5030664;28;20065;-62
2021/04/14 03:16:45;;;;;;;13.80;7.93;;;7.80;51.00;;;;;;5030829;28;20104;-61
2021/04/14 03:19:11;;;;;;;13.27;7.47;;;7.80;51.00;;;;;;5031243;28;20029;-61
2021/04/14 03:21:37;;;;;;;12.20;6.85;;;7.80;51.00;;;;;;5030367;28;20025;-61
2021/04/14 03:24:03;;;;;;;14.23;7.95;;;7.80;51.00;;;;;;5031154;28;20021;-61
2021/04/14 03:26:29;;;;;;;12.75;7.43;;;7.80;51.10;;;;;;5031239;28;20033;-61
2021/04/14 03:28:54;;;;;;;13.15;7.22;;;7.70;51.10;;;;;;5030957;28;20030;-61
2021/04/14 03:31:20;;;;;;;13.80;7.68;;;7.70;50.90;;;;;;5031386;28;20068;-61
2021/04/14 03:33:46;;;;;;;14.25;8.07;;;7.70;51.00;;;;;;5030721;28;20061;-62
2021/04/14 03:36:11;;;;;;;12.73;7.50;;;7.70;51.00;;;;;;5025782;28;20330;-61
2021/04/14 03:38:37;;;;;;;13.07;7.50;;;7.80;50.80;;;;;;5030618;28;20029;-61
2021/04/14 03:41:03;;;;;;;13.77;8.00;;;7.80;50.60;;;;;;5030990;28;20014;-61
2021/04/14 03:43:29;;;;;;;13.73;7.97;;;7.70;50.90;;;;;;5030749;28;20131;-62
2021/04/14 03:45:59;;;;;;;13.32;7.57;;;7.60;51.10;;;;;;5030688;28;20123;-61
2021/04/14 03:48:26;;;;;;;13.05;7.85;;;7.60;51.00;;;;;;5030883;28;20144;-61
2021/04/14 03:50:52;;;;;;;14.13;7.80;;;7.60;51.20;;;;;;5030439;28;20035;-61
2021/04/14 03:53:24;;;;;;;13.07;7.88;;;7.60;51.00;;;;;;5029218;28;20064;-61
2021/04/14 03:56:03;;;;;;;13.23;7.07;;;7.60;51.30;;;;;;5026440;28;20087;-61
2021/04/14 03:58:30;;;;;;;13.52;8.30;;;7.60;51.20;;;;;;5030802;28;20117;-61
2021/04/14 04:00:59;;;;;;;13.95;8.13;;;7.50;51.20;;;;;;5030670;28;20029;-61
2021/04/14 04:03:26;;;;;;;13.48;7.68;;;7.60;51.20;;;;;;5034014;28;20056;-62
2021/04/14 04:05:52;;;;;;;13.55;7.55;;;7.50;51.40;;;;;;5033890;28;20029;-62
2021/04/14 04:08:18;;;;;;;13.05;8.18;;;7.50;51.30;;;;;;5034384;28;20095;-61
2021/04/14 04:10:43;;;;;;;12.73;8.02;;;7.50;51.60;;;;;;5034236;28;20034;-61
2021/04/14 04:13:10;;;;;;;13.73;8.05;;;7.50;51.60;;;;;;5034206;28;20037;-62
2021/04/14 04:15:39;;;;;;;12.32;7.53;;;7.40;51.60;;;;;;5032423;28;20072;-61
2021/04/14 04:18:05;;;;;;;13.32;8.43;;;7.40;51.60;;;;;;5034036;28;20066;-62
2021/04/14 04:20:31;;;;;;;13.68;7.82;;;7.40;51.70;;;;;;5033485;28;20017;-61
2021/04/14 04:22:57;;;;;;;13.55;7.82;;;7.40;51.40;;;;;;5034288;28;20075;-61
2021/04/14 04:25:23;;;;;;;13.95;7.93;;;7.40;51.40;;;;;;5033539;28;20021;-62
2021/04/14 04:27:49;;;;;;;14.35;8.55;;;7.40;51.60;;;;;;5033852;28;20481;-62
2021/04/14 04:30:15;;;;;;;13.63;8.07;;;7.40;51.60;;;;;;5033848;28;20095;-64
2021/04/14 04:32:40;;;;;;;15.02;8.05;;;7.40;51.70;;;;;;5034022;28;20025;-63
2021/04/14 04:35:07;;;;;;;14.30;8.35;;;7.30;51.90;;;;;;5029530;28;20088;-61
2021/04/14 04:37:34;;;;;;;14.20;8.30;;;7.30;51.80;;;;;;5032804;28;20025;-62
2021/04/14 04:40:00;;;;;;;14.55;8.43;;;7.20;52.10;;;;;;5033788;28;20449;-62
2021/04/14 04:42:25;;;;;;;14.15;8.05;;;7.20;52.00;;;;;;5025730;28;20112;-61
2021/04/14 04:44:51;;;;;;;14.45;8.10;;;7.20;52.10;;;;;;5015030;28;20036;-61
2021/04/14 04:47:17;;;;;;;13.80;8.48;;;7.20;51.80;;;;;;5015918;28;20045;-62
2021/04/14 04:49:42;;;;;;;12.82;7.90;;;7.20;52.00;;;;;;5014480;28;20026;-61
2021/04/14 04:52:08;;;;;;;12.43;7.90;;;7.20;51.90;;;;;;5014760;28;20042;-62
2021/04/14 04:54:35;;;;;;;13.65;8.05;;;7.20;51.80;;;;;;5013438;28;20032;-62
2021/04/14 04:57:01;;;;;;;14.23;8.00;;;7.20;52.00;;;;;;5013584;28;20036;-62
2021/04/14 04:59:27;;;;;;;14.13;8.10;;;7.20;51.90;;;;;;5015371;28;20021;-62
2021/04/14 05:01:54;;;;;;;13.95;8.15;;;7.20;51.80;;;;;;5013060;28;20039;-62
2021/04/14 05:04:21;;;;;;;14.98;8.55;;;7.20;52.10;;;;;;5016960;28;20018;-63
2021/04/14 05:06:47;;;;;;;13.48;8.65;;;7.10;52.20;;;;;;5013732;28;20045;-62
2021/04/14 05:09:13;;;;;;;15.77;8.38;;;7.10;52.10;;;;;;5013868;28;20087;-63
2021/04/14 05:11:39;;;;;;;14.82;8.65;;;7.10;52.10;;;;;;5013926;28;20041;-62
2021/04/14 05:14:05;;;;;;;20.63;13.05;;;7.10;52.20;;;;;;5012960;28;20101;-62
2021/04/14 05:16:30;;;;;;;19.15;11.35;;;7.10;52.30;;;;;;5017331;28;20132;-62
2021/04/14 05:18:56;;;;;;;18.77;10.00;;;7.20;52.50;;;;;;5018009;28;20026;-62
2021/04/14 05:21:22;;;;;;;16.40;9.75;;;7.20;52.70;;;;;;5022908;28;20032;-63
2021/04/14 05:23:49;;;;;;;16.13;9.35;;;7.20;52.80;;;;;;5015887;28;20032;-62
2021/04/14 05:26:15;;;;;;;16.30;9.20;;;7.30;52.80;;;;;;5016278;28;20030;-62
2021/04/14 05:28:43;;;;;;;15.90;8.90;;;7.30;52.20;;;;;;5025314;28;20041;-62
2021/04/14 05:31:09;;;;;;;13.55;8.35;;;7.40;51.80;;;;;;5030212;28;20037;-62
2021/04/14 05:33:35;;;;;;;13.77;8.52;;;7.40;51.90;;;;;;5026780;28;20029;-63
2021/04/14 05:36:01;;;;;;;13.48;8.85;;;7.40;51.80;;;;;;5026487;28;20033;-62
2021/04/14 05:38:27;;;;;;;16.55;8.65;;;7.40;51.50;;;;;;5024507;28;20026;-62
2021/04/14 05:40:54;;;;;;;12.90;8.27;;;7.40;51.40;;;;;;5028777;28;20018;-62
2021/04/14 05:43:26;;;;;;;13.55;8.48;;;7.40;51.50;;;;;;5029342;28;20029;-62
2021/04/14 05:45:58;;;;;;;16.98;8.73;;;7.30;51.40;;;;;;5029495;28;20025;-63
2021/04/14 05:48:24;;;;;;;16.08;8.80;;;7.30;51.40;;;;;;5028654;28;20033;-61
2021/04/14 05:50:50;;;;;;;15.45;8.80;;;7.30;51.40;;;;;;5030957;28;20409;-62
2021/04/14 05:53:17;;;;;;;15.30;8.68;;;7.20;51.30;;;;;;5030044;28;20083;-61
2021/04/14 05:55:43;;;;;;;13.07;8.40;;;7.30;51.40;;;;;;5027049;28;20112;-61
2021/04/14 05:58:09;;;;;;;13.02;8.20;;;7.30;51.10;;;;;;5030093;28;20415;-61
2021/04/14 06:00:34;;;;;;;16.65;9.00;;;7.40;51.00;;;;;;5029358;28;20033;-62
2021/04/14 06:03:00;;;;;;;14.70;8.57;;;7.40;50.80;;;;;;5029171;28;20508;-62
2021/04/14 06:05:26;;;;;;;14.75;9.13;;;7.50;50.70;;;;;;5029868;28;20061;-61
2021/04/14 06:07:52;;;;;;;15.30;9.05;;;7.50;50.70;;;;;;5027069;28;20029;-62
2021/04/14 06:10:23;;;;;;;15.95;9.10;;;7.50;50.60;;;;;;5028491;28;20033;-62
2021/04/14 06:12:51;;;;;;;14.10;8.80;;;7.50;50.40;;;;;;5027213;28;20014;-62
2021/04/14 06:15:20;;;;;;;13.88;8.25;;;7.60;50.30;;;;;;5019217;28;20037;-62
2021/04/14 06:17:46;;;;;;;15.30;8.80;;;7.70;49.90;;;;;;5012609;28;20022;-62
2021/04/14 06:20:15;;;;;;;14.07;8.73;;;7.70;49.70;;;;;;5013834;28;20029;-62
2021/04/14 06:22:40;;;;;;;15.18;8.88;;;7.90;49.40;;;;;;5023516;28;20030;-62
2021/04/14 06:25:11;;;;;;;14.55;8.50;;;7.90;49.10;;;;;;5011130;28;20084;-63
2021/04/14 06:27:44;;;;;;;;;;;8.10;48.80;;;;;;5012317;28;20022;-63
2021/04/14 06:30:12;;;;;;;15.35;8.20;;;8.20;48.60;;;;;;5012012;28;19985;-63
2021/04/14 06:32:38;;;;;;;13.07;8.15;;;8.30;48.00;;;;;;5015720;28;20075;-62
2021/04/14 06:35:04;;;;;;;15.32;8.77;;;8.40;47.70;;;;;;5014716;28;20472;-63
2021/04/14 06:37:30;;;;;;;17.58;8.82;;;8.50;47.60;;;;;;5014483;28;20113;-63
2021/04/14 06:40:15;;;;;;;15.02;9.30;;;8.60;47.20;;;;;;5012984;28;20093;-62
2021/04/14 06:42:57;;;;;;;14.23;8.85;;;8.70;47.10;;;;;;5012997;28;20045;-63
2021/04/14 06:45:57;;;;;;;15.00;9.00;;;8.80;46.80;;;;;;5011727;28;20026;-62
2021/04/14 06:48:44;;;;;;;14.32;8.40;;;9.00;46.50;;;;;;5019000;28;20034;-63
2021/04/14 06:51:35;;;;;;;14.02;8.75;;;9.20;46.10;;;;;;5019725;28;20432;-63
2021/04/14 06:54:13;;;;;;;15.27;8.50;;;9.40;45.60;;;;;;5022968;28;20051;-63
2021/04/14 06:56:40;;;;;;;15.50;8.95;;;9.70;44.90;;;;;;5019653;28;20564;-62
2021/04/14 06:59:18;;;;;;;14.88;8.80;;;10.00;44.30;;;;;;5019159;28;20037;-63
2021/04/14 07:02:03;;;;;;;14.93;9.05;;;10.30;43.20;;;;;;5024468;28;20021;-63
2021/04/14 07:04:44;;;;;;;19.08;9.38;;;10.70;42.30;;;;;;5021485;28;20056;-63
2021/04/14 07:07:15;;;;;;;13.73;8.68;;;11.20;41.30;;;;;;5024776;28;20466;-63
2021/04/14 07:09:45;;;;;;;13.48;8.30;;;12.20;40.50;;;;;;5012038;28;20133;-63
2021/04/14 07:12:16;;;;;;;11.95;8.60;;;13.90;36.50;;;;;;5007962;28;20417;-64
2021/04/14 07:14:41;;;;;;;;;;;16.60;30.80;;;;;;5010544;28;20484;-65
2021/04/14 07:17:44;;;;;;;12.68;7.63;;;19.50;27.00;;;;;;5027465;28;19909;-65
2021/04/14 07:20:32;;;;;;;12.68;7.60;;;22.20;23.90;;;;;;5013528;28;20026;-62
2021/04/14 07:23:42;;;;;;;11.63;7.35;;;24.30;21.50;;;;;;5027524;28;20030;-62
2021/04/14 07:26:17;;;;;;;11.63;6.88;;;26.20;19.90;;;;;;5024509;28;20049;-63
2021/04/14 07:28:57;;;;;;;11.05;6.60;;;27.50;18.90;;;;;;5024291;28;20030;-63
2021/04/14 07:31:30;;;;;;;9.70;6.30;;;28.80;17.70;;;;;;5024861;28;20129;-63
2021/04/14 07:34:14;;;;;;;10.60;7.00;;;29.60;16.90;;;;;;5024497;28;20033;-63
2021/04/14 07:36:47;;;;;;;10.60;6.18;;;30.50;16.20;;;;;;5024126;28;20037;-63
2021/04/14 07:39:24;;;;;;;9.93;6.22;;;31.50;15.90;;;;;;5019286;28;20479;-63
2021/04/14 07:41:59;;;;;;;10.43;6.82;;;32.40;15.20;;;;;;5023165;28;20041;-63
2021/04/14 07:44:39;;;;;;;8.82;5.63;;;32.90;14.60;;;;;;5017186;28;20041;-63
2021/04/14 07:47:08;;;;;;;8.75;5.63;;;33.80;14.50;;;;;;5010653;28;20406;-63
2021/04/14 07:49:35;;;;;;;9.15;5.80;;;34.50;13.80;;;;;;5012651;28;20077;-64
2021/04/14 07:52:03;;;;;;;8.95;5.60;;;34.90;12.90;;;;;;5014527;28;20532;-64
2021/04/14 07:54:56;;;;;;;8.82;5.78;;;35.20;13.30;;;;;;5011335;28;20033;-64
2021/04/14 07:57:38;;;;;;;9.50;5.60;;;36.00;12.80;;;;;;5014153;28;20041;-64
2021/04/14 08:00:14;;;;;;;8.13;5.40;;;36.70;13.10;;;;;;5019083;28;20072;-64
2021/04/14 08:02:40;;;;;;;9.57;5.10;;;37.10;12.10;;;;;;5015313;28;20050;-64
2021/04/14 08:05:30;;;;;;;7.05;5.05;;;37.40;11.80;;;;;;5030859;28;20095;-64
2021/04/14 08:07:56;;;;;;;7.75;5.43;;;37.80;11.90;;;;;;5023815;28;20702;-64
2021/04/14 08:10:28;;;;;;;7.95;5.50;;;38.20;11.50;;;;;;5021120;28;20350;-64
2021/04/14 08:13:05;;;;;;;9.35;5.20;;;38.70;11.20;;;;;;5011900;28;20021;-65
2021/04/14 08:15:46;;;;;;;9.20;5.78;;;39.20;11.20;;;;;;5017150;28;20091;-65
2021/04/14 08:18:24;;;;;;;9.38;6.82;;;39.50;10.40;;;;;;5023321;28;20021;-65
2021/04/14 08:21:08;;;;;;;8.73;6.90;;;38.80;10.10;;;;;;5022387;28;20045;-65
2021/04/14 08:23:34;;;;;;;8.80;6.93;;;38.30;11.00;;;;;;5025183;28;20026;-65
2021/04/14 08:26:11;;;;;;;9.95;6.90;;;38.70;10.30;;;;;;5027835;28;20092;-65
2021/04/14 08:28:45;;;;;;;10.45;7.28;;;38.40;9.50;;;;;;5023722;28;20799;-65
2021/04/14 08:31:46;;;;;;;10.30;8.10;;;37.20;10.10;;;;;;5028293;28;20037;-65
2021/04/14 08:34:17;;;;;;;8.82;6.43;;;36.70;9.90;;;;;;5027897;28;20021;-65
2021/04/14 08:37:12;;;;;;;14.48;8.52;;;36.40;10.70;;;;;;5024642;28;20033;-64
2021/04/14 08:39:52;;;;;;;11.35;8.00;;;34.60;10.20;;;;;;5019776;28;20033;-64
2021/04/14 08:42:21;;;;;;;11.18;7.25;;;34.20;10.80;;;;;;5021739;28;20038;-64
2021/04/14 08:44:50;;;;;;;10.35;7.88;;;34.30;10.80;;;;;;5012955;28;20646;-64
2021/04/14 08:47:18;;;;;;;9.35;6.97;;;34.10;10.60;;;;;;5017851;28;20122;-64
2021/04/14 08:49:48;;;;;;;9.65;7.53;;;34.00;10.90;;;;;;5022169;28;20083;-64
2021/04/14 08:52:19;;;;;;;9.38;6.80;;;34.00;10.30;;;;;;5016888;28;20026;-64
2021/04/14 08:54:45;;;;;;;8.82;7.10;;;33.60;10.50;;;;;;5022048;28;20131;-64
2021/04/14 08:57:11;;;;;;;9.93;6.90;;;34.10;10.60;;;;;;5016908;28;20061;-64
2021/04/14 08:59:39;;;;;;;10.13;7.45;;;34.50;10.30;;;;;;5021842;28;20025;-64
2021/04/14 09:02:07;;;;;;;9.53;7.07;;;34.60;10.00;;;;;;5017569;28;20072;-64
2021/04/14 09:04:34;;;;;;;9.32;8.20;;;35.00;9.80;;;;;;5019846;28;20347;-64
2021/04/14 09:07:03;;;;;;;8.13;6.43;;;34.50;9.70;;;;;;5022220;28;20030;-64
2021/04/14 09:09:30;;;;;;;8.85;6.05;;;34.80;10.00;;;;;;5021938;28;20501;-64
2021/04/14 09:12:02;;;;;;;7.90;6.10;;;35.00;9.60;;;;;;5020021;28;20033;-64
2021/04/14 09:14:30;;;;;;;9.27;6.55;;;35.80;9.70;;;;;;5017380;28;20037;-64
2021/04/14 09:17:24;;;;;;;9.32;6.30;;;35.90;9.20;;;;;;5021543;28;20080;-65
2021/04/14 09:19:52;;;;;;;8.57;6.32;;;35.80;9.10;;;;;;5019291;28;20413;-65
2021/04/14 09:22:25;;;;;;;8.80;5.80;;;36.70;9.00;;;;;;5029725;28;20029;-65
2021/04/14 09:24:57;;;;;;;8.55;6.38;;;37.30;8.80;;;;;;5029784;28;20040;-65
2021/04/14 09:27:37;;;;;;;8.55;6.15;;;37.70;8.10;;;;;;5029748;28;20025;-65
2021/04/14 09:30:12;;;;;;;11.27;6.80;;;37.60;8.30;;;;;;5029585;28;20030;-65
2021/04/14 09:33:05;;;;;;;6.05;4.78;;;37.30;8.10;;;;;;5016462;28;20100;-65
2021/04/14 09:35:30;;;;;;;9.07;6.68;;;38.00;9.20;;;;;;5024092;28;20038;-65
2021/04/14 09:38:32;;;;;;;8.32;6.47;;;37.80;7.60;;;;;;5021913;28;20631;-65
2021/04/14 09:41:12;;;;;;;7.20;5.10;;;36.50;8.20;;;;;;5021864;28;20095;-64
2021/04/14 09:43:43;;;;;;;8.40;6.03;;;36.50;8.80;;;;;;5024981;28;20048;-65
2021/04/14 09:46:27;;;;;;;6.85;5.20;;;36.70;8.20;;;;;;5014584;28;20036;-65
2021/04/14 09:48:53;;;;;;;7.13;5.47;;;37.00;7.80;;;;;;5020109;28;20033;-65
2021/04/14 09:51:32;;;;;;;7.63;5.95;;;37.60;7.80;;;;;;5024354;28;20022;-65
2021/04/14 09:54:06;;;;;;;7.60;5.30;;;37.70;7.50;;;;;;5011440;28;20570;-65
2021/04/14 09:56:33;;;;;;;7.85;5.60;;;37.60;8.00;;;;;;5010359;28;20038;-64
2021/04/14 09:59:28;;;;;;;8.27;5.63;;;36.70;7.50;;;;;;5021800;28;20053;-65
2021/04/14 10:02:02;;;;;;;8.18;5.40;;;36.10;7.70;;;;;;5017897;28;20096;-64
2021/04/14 10:04:28;;;;;;;7.70;5.40;;;35.30;8.30;;;;;;5014473;28;20108;-65
2021/04/14 10:07:26;;;;;;;7.75;5.65;;;34.60;8.70;;;;;;5012383;28;20057;-64
2021/04/14 10:10:07;;;;;;;8.40;5.57;;;34.40;8.80;;;;;;5010329;28;20033;-64
2021/04/14 10:12:34;;;;;;;7.15;5.57;;;35.30;8.60;;;;;;5016993;28;20565;-64
2021/04/14 10:15:01;;;;;;;6.60;4.25;;;34.60;8.50;;;;;;5023026;28;20052;-64
2021/04/14 10:17:29;;;;;;;7.90;5.82;;;34.70;8.80;;;;;;5019911;28;20044;-65
2021/04/14 10:20:06;;;;;;;8.18;6.10;;;34.00;8.40;;;;;;5020910;28;20044;-64
2021/04/14 10:22:37;;;;;;;8.20;5.75;;;32.00;9.30;;;;;;5028425;28;20106;-64
2021/04/14 10:25:13;;;;;;;9.15;6.45;;;30.40;10.60;;;;;;5028673;28;20120;-65
2021/04/14 10:27:40;;;;;;;10.13;7.28;;;28.80;11.70;;;;;;5028479;28;20485;-64
2021/04/14 10:30:08;;;;;;;9.50;7.07;;;26.70;12.50;;;;;;5028440;28;20040;-63
2021/04/14 10:32:34;;;;;;;10.07;7.47;;;25.00;13.90;;;;;;5011164;28;20034;-66
2021/04/14 10:35:10;;;;;;;10.07;7.15;;;23.80;14.30;;;;;;5014206;28;20389;-64
2021/04/14 10:37:44;;;;;;;13.23;9.63;;;22.30;15.20;;;;;;5011943;28;20029;-65
2021/04/14 10:40:19;;;;;;;13.02;9.65;;;21.60;16.20;;;;;;5010452;28;20425;-65
2021/04/14 10:42:47;;;;;;;12.20;9.15;;;20.50;16.90;;;;;;5021856;28;20041;-64
2021/04/14 10:45:15;;;;;;;13.23;9.80;;;19.50;17.90;;;;;;5009628;28;20048;-64
2021/04/14 10:47:42;;;;;;;13.38;9.52;;;18.90;18.90;;;;;;5009359;28;20486;-64
2021/04/14 10:50:13;;;;;;;11.75;8.60;;;18.80;18.90;;;;;;5013459;28;20029;-64
2021/04/14 10:52:41;;;;;;;11.23;8.23;;;18.70;19.30;;;;;;5025043;28;20025;-63
2021/04/14 10:55:14;;;;;;;12.93;9.38;;;18.70;19.80;;;;;;5022656;28;20033;-65
2021/04/14 10:57:42;;;;;;;11.82;8.68;;;19.00;20.00;;;;;;5021996;28;20033;-64
2021/04/14 11:00:13;;;;;;;12.00;9.20;;;18.90;19.50;;;;;;5011867;28;20134;-64
2021/04/14 11:02:42;;;;;;;12.75;8.85;;;18.50;19.50;;;;;;5013707;28;20037;-64
2021/04/14 11:05:11;;;;;;;12.40;9.32;;;18.80;20.20;;;;;;5020044;28;20506;-64
2021/04/14 11:07:38;;;;;;;12.45;9.07;;;19.00;19.50;;;;;;5005110;28;20132;-64
2021/04/14 11:10:07;;;;;;;11.90;8.40;;;18.80;19.80;;;;;;5021015;28;20800;-65
2021/04/14 11:12:34;;;;;;;12.48;8.05;;;18.70;19.70;;;;;;5021684;28;20088;-64
2021/04/14 11:15:14;;;;;;;11.82;8.82;;;18.70;19.50;;;;;;5015198;28;20069;-64
2021/04/14 11:17:41;;;;;;;14.48;9.77;;;18.80;19.70;;;;;;5011678;28;20132;-64
2021/04/14 11:20:11;;;;;;;14.75;10.77;;;18.80;19.80;;;;;;5020242;28;20029;-64
2021/04/14 11:22:49;;;;;;;14.80;9.90;;;18.70;20.30;;;;;;5018429;28;20061;-64
2021/04/14 11:25:32;;;;;;;14.65;8.95;;;18.70;20.70;;;;;;5015687;28;20112;-64
2021/04/14 11:28:00;;;;;;;14.38;9.05;;;18.50;20.30;;;;;;5025623;28;20075;-64
2021/04/14 11:30:27;;;;;;;12.48;8.50;;;18.20;20.60;;;;;;5027391;28;20017;-64
2021/04/14 11:32:58;;;;;;;11.68;8.20;;;17.90;20.90;;;;;;5028359;28;20083;-64
2021/04/14 11:35:43;;;;;;;12.38;7.88;;;17.80;21.50;;;;;;5026804;28;20033;-64
2021/04/14 11:38:36;;;;;;;11.52;7.93;;;18.00;21.80;;;;;;5018292;28;20060;-64
2021/04/14 11:41:40;;;;;;;12.15;7.43;;;18.30;22.10;;;;;;5028040;28;20031;-64
2021/04/14 11:44:23;;;;;;;10.48;6.97;;;18.80;21.50;;;;;;5024493;28;20045;-64
2021/04/14 11:46:59;;;;;;;10.77;7.65;;;19.10;20.80;;;;;;5027528;28;20571;-64
2021/04/14 11:49:28;;;;;;;10.85;7.45;;;19.00;20.60;;;;;;5026556;28;20021;-64
2021/04/14 11:51:58;;;;;;;10.05;6.65;;;18.60;20.70;;;;;;5027732;28;20494;-64
2021/04/14 11:54:32;;;;;;;9.77;6.50;;;18.20;21.30;;;;;;5027802;28;20034;-64
2021/04/14 11:57:23;;;;;;;11.18;6.60;;;18.00;21.80;;;;;;5027386;28;20041;-64
2021/04/14 12:00:04;;;;;;;9.35;5.97;;;18.10;22.30;;;;;;5026477;28;20436;-64
2021/04/14 12:02:30;;;;;;;9.65;6.55;;;18.50;22.60;;;;;;5024481;28;20112;-64
2021/04/14 12:05:01;;;;;;;10.27;6.75;;;18.30;22.10;;;;;;5026958;28;20025;-64
2021/04/14 12:07:27;;;;;;;10.05;6.43;;;18.40;22.40;;;;;;5022278;28;20026;-64
2021/04/14 12:09:53;;;;;;;9.77;7.03;;;18.60;22.30;;;;;;5019341;28;20029;-64
2021/04/14 12:12:19;;;;;;;9.82;7.25;;;18.80;22.30;;;;;;5022278;28;20032;-64
2021/04/14 12:14:46;;;;;;;9.63;7.28;;;18.40;22.10;;;;;;5019037;28;20048;-64
2021/04/14 12:17:12;;;;;;;11.52;7.57;;;18.30;22.70;;;;;;5016059;28;20144;-64
2021/04/14 12:19:39;;;;;;;9.73;7.18;;;18.20;23.00;;;;;;5020705;28;20573;-64
2021/04/14 12:22:05;;;;;;;10.40;7.20;;;18.10;23.30;;;;;;5026982;28;20489;-64
2021/04/14 12:24:31;;;;;;;11.27;6.80;;;18.00;23.20;;;;;;5030561;28;20036;-64
2021/04/14 12:26:57;;;;;;;10.25;7.53;;;17.90;23.60;;;;;;5030404;28;20508;-64
2021/04/14 12:29:23;;;;;;;10.40;7.00;;;17.50;23.40;;;;;;5030262;28;20430;-64
2021/04/14 12:31:48;;;;;;;10.82;7.07;;;17.10;24.60;;;;;;5030335;28;20361;-63
2021/04/14 12:34:15;;;;;;;10.48;6.43;;;17.00;25.10;;;;;;5016007;28;20091;-63
2021/04/14 12:36:41;;;;;;;11.80;7.43;;;16.80;24.80;;;;;;5026236;28;20109;-64
2021/04/14 12:39:08;;;;;;;13.02;5.75;;;16.70;24.80;;;;;;5011117;28;20132;-63
2021/04/14 12:41:35;;;;;;;10.30;5.55;;;16.40;24.30;;;;;;5009959;28;20549;-63
2021/04/14 12:44:00;;;;;;;9.18;5.20;;;16.30;25.10;;;;;;5014697;28;20033;-63
2021/04/14 12:46:26;;;;;;;8.05;5.18;;;16.20;25.50;;;;;;5011817;28;20372;-63
2021/04/14 12:48:52;;;;;;;9.15;5.75;;;16.20;25.40;;;;;;5012557;28;20056;-63
2021/04/14 12:51:29;;;;;;;11.48;6.78;;;16.20;25.80;;;;;;5012338;28;20486;-64
2021/04/14 12:54:18;;;;;;;13.32;6.97;;;16.20;26.20;;;;;;5014067;28;20072;-63
2021/04/14 12:56:56;;;;;;;11.75;6.88;;;16.40;26.20;;;;;;5013667;28;20437;-63
2021/04/14 12:59:28;;;;;;;10.50;6.38;;;16.50;25.70;;;;;;5025355;28;20033;-63
2021/04/14 13:02:02;;;;;;;9.75;6.53;;;16.20;25.60;;;;;;5016026;28;20040;-63